Nailsworth, United Kingdom
Current Conditions -  °F | °C
As of 5:50 PM on Friday 21 Nov 2014 (Local Time) from EGBJ Reporting Station
Light Rain Light Rain  
Wind Chill: 44°   Ceiling: Unl
Heat Index: 46°   Visibility: 4mi
Dew Point: 45°   Wind: 6mph
Humidity: 93%   Direction: 100°E
Pressure: 29.88"   Gusts: NA
Location:  51.69°N, 2.22°W
Report Text: EGBJ 211750Z 10005KT 7000 -RA SCT007 08/07 Q1012
Loading
Personal Weather Stations






























Interactive Weather Map New forecast layout! Learn more

10-Day Weather Forecast

Advertisements
Track Severe Weather on mobile